sensor_id;sensor_type;location;lat;lon;timestamp;pressure;altitude;pressure_sealevel;temperature;humidity
72961;BME280;61141;46.204;19.774;2022-11-20T00:02:26;100023.16;;;3.22;100.00
72961;BME280;61141;46.204;19.774;2022-11-20T00:05:32;100018.00;;;3.29;100.00
72961;BME280;61141;46.204;19.774;2022-11-20T00:08:35;100021.59;;;3.42;100.00
72961;BME280;61141;46.204;19.774;2022-11-20T00:11:38;100014.19;;;3.51;100.00
72961;BME280;61141;46.204;19.774;2022-11-20T00:14:41;99999.00;;;3.59;100.00
72961;BME280;61141;46.204;19.774;2022-11-20T00:17:44;100000.84;;;3.46;100.00
72961;BME280;61141;46.204;19.774;2022-11-20T00:20:47;99984.06;;;3.32;100.00
72961;BME280;61141;46.204;19.774;2022-11-20T00:23:51;99979.72;;;3.60;100.00
72961;BME280;61141;46.204;19.774;2022-11-20T00:26:56;99974.91;;;3.45;100.00
72961;BME280;61141;46.204;19.774;2022-11-20T00:29:59;99976.03;;;3.44;100.00
72961;BME280;61141;46.204;19.774;2022-11-20T00:33:02;99978.66;;;3.32;100.00
72961;BME280;61141;46.204;19.774;2022-11-20T00:36:07;99978.25;;;3.21;100.00
72961;BME280;61141;46.204;19.774;2022-11-20T00:39:10;99970.75;;;3.27;100.00
72961;BME280;61141;46.204;19.774;2022-11-20T00:42:13;99978.50;;;3.37;100.00
72961;BME280;61141;46.204;19.774;2022-11-20T00:45:16;99962.81;;;3.22;100.00
72961;BME280;61141;46.204;19.774;2022-11-20T00:48:19;99952.72;;;3.31;100.00
72961;BME280;61141;46.204;19.774;2022-11-20T00:51:23;99936.16;;;3.32;100.00
72961;BME280;61141;46.204;19.774;2022-11-20T00:54:26;99938.53;;;3.34;100.00
72961;BME280;61141;46.204;19.774;2022-11-20T00:57:29;99946.81;;;3.70;100.00
72961;BME280;61141;46.204;19.774;2022-11-20T01:00:32;99941.16;;;3.63;100.00
72961;BME280;61141;46.204;19.774;2022-11-20T01:03:40;99927.00;;;3.78;100.00
72961;BME280;61141;46.204;19.774;2022-11-20T01:06:43;99915.97;;;3.63;100.00
72961;BME280;61141;46.204;19.774;2022-11-20T01:09:46;99927.06;;;3.37;100.00
72961;BME280;61141;46.204;19.774;2022-11-20T01:12:49;99935.31;;;3.73;100.00
72961;BME280;61141;46.204;19.774;2022-11-20T01:16:17;99940.03;;;3.43;100.00
72961;BME280;61141;46.204;19.774;2022-11-20T01:19:22;99949.75;;;3.44;100.00
72961;BME280;61141;46.204;19.774;2022-11-20T01:22:26;99958.19;;;3.43;100.00
72961;BME280;61141;46.204;19.774;2022-11-20T01:25:29;99966.00;;;3.44;100.00
72961;BME280;61141;46.204;19.774;2022-11-20T01:28:32;99955.97;;;3.24;100.00
72961;BME280;61141;46.204;19.774;2022-11-20T01:31:36;99948.44;;;3.30;100.00
72961;BME280;61141;46.204;19.774;2022-11-20T01:34:39;99925.78;;;3.34;100.00
72961;BME280;61141;46.204;19.774;2022-11-20T01:37:42;99910.25;;;3.43;100.00
72961;BME280;61141;46.204;19.774;2022-11-20T01:40:45;99910.78;;;3.58;100.00
72961;BME280;61141;46.204;19.774;2022-11-20T01:43:56;99908.87;;;3.37;100.00
72961;BME280;61141;46.204;19.774;2022-11-20T01:47:04;99920.19;;;3.19;100.00
72961;BME280;61141;46.204;19.774;2022-11-20T01:50:15;99935.75;;;3.22;100.00
72961;BME280;61141;46.204;19.774;2022-11-20T01:53:21;99915.53;;;3.40;100.00
72961;BME280;61141;46.204;19.774;2022-11-20T01:56:28;99899.25;;;3.28;100.00
72961;BME280;61141;46.204;19.774;2022-11-20T01:59:33;99891.16;;;3.28;100.00
72961;BME280;61141;46.204;19.774;2022-11-20T02:02:37;99866.50;;;3.21;100.00
72961;BME280;61141;46.204;19.774;2022-11-20T02:05:46;99871.03;;;3.17;100.00
72961;BME280;61141;46.204;19.774;2022-11-20T02:08:52;99847.66;;;3.12;100.00
72961;BME280;61141;46.204;19.774;2022-11-20T02:11:56;99851.41;;;3.20;100.00
72961;BME280;61141;46.204;19.774;2022-11-20T02:14:59;99843.91;;;3.37;100.00
72961;BME280;61141;46.204;19.774;2022-11-20T02:18:03;99853.59;;;3.06;100.00
72961;BME280;61141;46.204;19.774;2022-11-20T02:24:26;99887.06;;;3.22;100.00
72961;BME280;61141;46.204;19.774;2022-11-20T02:27:28;99877.88;;;2.93;100.00
72961;BME280;61141;46.204;19.774;2022-11-20T02:30:32;99871.47;;;2.77;100.00
72961;BME280;61141;46.204;19.774;2022-11-20T02:33:34;99863.81;;;2.79;100.00
72961;BME280;61141;46.204;19.774;2022-11-20T02:36:39;99871.87;;;3.09;100.00
72961;BME280;61141;46.204;19.774;2022-11-20T02:39:44;99875.84;;;2.90;100.00
72961;BME280;61141;46.204;19.774;2022-11-20T02:42:52;99890.16;;;2.70;100.00
72961;BME280;61141;46.204;19.774;2022-11-20T02:45:54;99887.69;;;2.77;100.00
72961;BME280;61141;46.204;19.774;2022-11-20T02:48:58;99882.84;;;2.91;100.00
72961;BME280;61141;46.204;19.774;2022-11-20T02:52:01;99856.00;;;2.86;100.00
72961;BME280;61141;46.204;19.774;2022-11-20T02:55:04;99876.22;;;3.01;100.00
72961;BME280;61141;46.204;19.774;2022-11-20T02:58:07;99872.66;;;2.88;100.00
72961;BME280;61141;46.204;19.774;2022-11-20T03:01:10;99877.94;;;2.85;100.00
72961;BME280;61141;46.204;19.774;2022-11-20T03:04:13;99884.81;;;2.82;100.00
72961;BME280;61141;46.204;19.774;2022-11-20T03:07:16;99887.59;;;2.94;100.00
72961;BME280;61141;46.204;19.774;2022-11-20T03:10:18;99881.38;;;2.94;100.00
72961;BME280;61141;46.204;19.774;2022-11-20T03:13:21;99912.25;;;2.72;100.00
72961;BME280;61141;46.204;19.774;2022-11-20T03:16:24;99908.28;;;2.90;100.00
72961;BME280;61141;46.204;19.774;2022-11-20T03:19:27;99922.00;;;2.85;100.00
72961;BME280;61141;46.204;19.774;2022-11-20T03:22:30;99918.75;;;3.01;100.00
72961;BME280;61141;46.204;19.774;2022-11-20T03:25:33;99913.69;;;2.90;100.00
72961;BME280;61141;46.204;19.774;2022-11-20T03:28:36;99912.00;;;3.07;100.00
72961;BME280;61141;46.204;19.774;2022-11-20T03:31:40;99909.69;;;2.96;100.00
72961;BME280;61141;46.204;19.774;2022-11-20T03:34:43;99921.16;;;2.93;100.00
72961;BME280;61141;46.204;19.774;2022-11-20T03:37:46;99902.09;;;2.90;100.00
72961;BME280;61141;46.204;19.774;2022-11-20T03:40:48;99882.94;;;2.74;100.00
72961;BME280;61141;46.204;19.774;2022-11-20T03:44:00;99898.97;;;2.79;100.00
72961;BME280;61141;46.204;19.774;2022-11-20T03:47:03;99892.72;;;2.87;100.00
72961;BME280;61141;46.204;19.774;2022-11-20T03:50:07;99886.91;;;2.77;100.00
72961;BME280;61141;46.204;19.774;2022-11-20T03:53:09;99897.00;;;2.88;100.00
72961;BME280;61141;46.204;19.774;2022-11-20T03:56:14;99891.28;;;3.11;100.00
72961;BME280;61141;46.204;19.774;2022-11-20T03:59:17;99905.19;;;2.80;100.00
72961;BME280;61141;46.204;19.774;2022-11-20T04:02:20;99906.97;;;2.96;100.00
72961;BME280;61141;46.204;19.774;2022-11-20T04:05:23;99905.22;;;2.71;100.00
72961;BME280;61141;46.204;19.774;2022-11-20T04:08:25;99902.63;;;3.04;100.00
72961;BME280;61141;46.204;19.774;2022-11-20T04:11:31;99892.06;;;2.90;100.00
72961;BME280;61141;46.204;19.774;2022-11-20T04:14:33;99888.31;;;2.83;100.00
72961;BME280;61141;46.204;19.774;2022-11-20T04:17:36;99883.03;;;2.86;100.00
72961;BME280;61141;46.204;19.774;2022-11-20T04:20:39;99861.84;;;2.88;100.00
72961;BME280;61141;46.204;19.774;2022-11-20T04:23:42;99853.81;;;2.59;100.00
72961;BME280;61141;46.204;19.774;2022-11-20T04:26:45;99860.81;;;2.52;100.00
72961;BME280;61141;46.204;19.774;2022-11-20T04:29:47;99861.16;;;2.71;100.00
72961;BME280;61141;46.204;19.774;2022-11-20T04:32:51;99870.94;;;2.63;100.00
72961;BME280;61141;46.204;19.774;2022-11-20T04:35:54;99892.75;;;2.58;100.00
72961;BME280;61141;46.204;19.774;2022-11-20T04:38:59;99892.91;;;2.62;100.00
72961;BME280;61141;46.204;19.774;2022-11-20T04:42:03;99894.72;;;2.78;100.00
72961;BME280;61141;46.204;19.774;2022-11-20T04:45:24;99870.56;;;2.94;100.00
72961;BME280;61141;46.204;19.774;2022-11-20T04:48:28;99889.41;;;2.82;100.00
72961;BME280;61141;46.204;19.774;2022-11-20T04:51:32;99895.63;;;2.82;100.00
72961;BME280;61141;46.204;19.774;2022-11-20T04:54:35;99885.59;;;2.83;100.00
72961;BME280;61141;46.204;19.774;2022-11-20T04:57:37;99880.53;;;2.81;100.00
72961;BME280;61141;46.204;19.774;2022-11-20T05:00:40;99870.03;;;2.80;100.00
72961;BME280;61141;46.204;19.774;2022-11-20T05:03:44;99854.25;;;2.61;100.00
72961;BME280;61141;46.204;19.774;2022-11-20T05:06:47;99838.69;;;2.58;100.00
72961;BME280;61141;46.204;19.774;2022-11-20T05:09:49;99833.22;;;2.67;100.00
72961;BME280;61141;46.204;19.774;2022-11-20T05:12:52;99818.13;;;2.66;100.00
72961;BME280;61141;46.204;19.774;2022-11-20T05:15:55;99819.50;;;2.72;100.00
72961;BME280;61141;46.204;19.774;2022-11-20T05:18:58;99827.97;;;2.70;100.00
72961;BME280;61141;46.204;19.774;2022-11-20T05:22:01;99825.87;;;2.47;100.00
72961;BME280;61141;46.204;19.774;2022-11-20T05:25:04;99835.75;;;2.92;100.00
72961;BME280;61141;46.204;19.774;2022-11-20T05:28:07;99822.56;;;2.70;100.00
72961;BME280;61141;46.204;19.774;2022-11-20T05:31:16;99807.09;;;2.71;100.00
72961;BME280;61141;46.204;19.774;2022-11-20T05:34:26;99810.59;;;2.71;100.00
72961;BME280;61141;46.204;19.774;2022-11-20T05:37:29;99833.91;;;2.84;100.00
72961;BME280;61141;46.204;19.774;2022-11-20T05:40:32;99843.84;;;2.92;100.00
72961;BME280;61141;46.204;19.774;2022-11-20T05:43:36;99839.16;;;2.81;100.00
72961;BME280;61141;46.204;19.774;2022-11-20T05:46:39;99841.13;;;2.72;100.00
72961;BME280;61141;46.204;19.774;2022-11-20T05:49:42;99838.22;;;2.56;100.00
72961;BME280;61141;46.204;19.774;2022-11-20T05:52:45;99846.28;;;2.85;100.00
72961;BME280;61141;46.204;19.774;2022-11-20T05:55:59;99842.47;;;2.86;100.00
72961;BME280;61141;46.204;19.774;2022-11-20T05:59:02;99832.44;;;2.87;100.00
72961;BME280;61141;46.204;19.774;2022-11-20T06:02:04;99853.31;;;2.57;100.00
72961;BME280;61141;46.204;19.774;2022-11-20T06:05:08;99875.50;;;2.71;100.00
72961;BME280;61141;46.204;19.774;2022-11-20T06:08:10;99886.19;;;2.88;100.00
72961;BME280;61141;46.204;19.774;2022-11-20T06:11:14;99902.31;;;2.56;100.00
72961;BME280;61141;46.204;19.774;2022-11-20T06:14:17;99899.31;;;2.49;100.00
72961;BME280;61141;46.204;19.774;2022-11-20T06:17:20;99906.03;;;2.72;100.00
72961;BME280;61141;46.204;19.774;2022-11-20T06:20:23;99911.41;;;2.51;100.00
72961;BME280;61141;46.204;19.774;2022-11-20T06:23:28;99907.38;;;2.57;100.00
72961;BME280;61141;46.204;19.774;2022-11-20T06:26:30;99898.75;;;2.64;100.00
72961;BME280;61141;46.204;19.774;2022-11-20T06:29:34;99883.06;;;2.57;100.00
72961;BME280;61141;46.204;19.774;2022-11-20T06:32:37;99885.00;;;2.57;100.00
72961;BME280;61141;46.204;19.774;2022-11-20T06:35:40;99899.28;;;2.57;100.00
72961;BME280;61141;46.204;19.774;2022-11-20T06:38:43;99881.78;;;2.55;100.00
72961;BME280;61141;46.204;19.774;2022-11-20T06:41:46;99869.38;;;2.62;100.00
72961;BME280;61141;46.204;19.774;2022-11-20T06:44:48;99884.25;;;2.68;100.00
72961;BME280;61141;46.204;19.774;2022-11-20T06:47:51;99894.19;;;2.56;100.00
72961;BME280;61141;46.204;19.774;2022-11-20T06:50:55;99888.78;;;2.56;100.00
72961;BME280;61141;46.204;19.774;2022-11-20T06:53:59;99891.66;;;2.80;100.00
72961;BME280;61141;46.204;19.774;2022-11-20T06:57:03;99908.03;;;2.83;100.00
72961;BME280;61141;46.204;19.774;2022-11-20T07:00:06;99909.84;;;2.71;100.00
72961;BME280;61141;46.204;19.774;2022-11-20T07:03:11;99906.00;;;2.51;100.00
72961;BME280;61141;46.204;19.774;2022-11-20T07:06:14;99918.03;;;2.62;100.00
72961;BME280;61141;46.204;19.774;2022-11-20T07:09:17;99914.94;;;2.72;100.00
72961;BME280;61141;46.204;19.774;2022-11-20T07:12:20;99917.78;;;2.76;100.00
72961;BME280;61141;46.204;19.774;2022-11-20T07:15:24;99933.56;;;2.65;100.00
72961;BME280;61141;46.204;19.774;2022-11-20T07:18:27;99948.22;;;2.64;100.00
72961;BME280;61141;46.204;19.774;2022-11-20T07:21:30;99956.06;;;2.86;100.00
72961;BME280;61141;46.204;19.774;2022-11-20T07:24:33;99961.47;;;2.86;100.00
72961;BME280;61141;46.204;19.774;2022-11-20T07:27:36;99962.13;;;2.83;100.00
72961;BME280;61141;46.204;19.774;2022-11-20T07:30:39;99957.38;;;2.80;100.00
72961;BME280;61141;46.204;19.774;2022-11-20T07:33:42;99940.75;;;2.90;100.00
72961;BME280;61141;46.204;19.774;2022-11-20T07:36:45;99933.37;;;3.00;100.00
72961;BME280;61141;46.204;19.774;2022-11-20T07:39:47;99942.16;;;2.96;100.00
72961;BME280;61141;46.204;19.774;2022-11-20T07:42:52;99944.59;;;3.10;100.00
72961;BME280;61141;46.204;19.774;2022-11-20T07:45:56;99959.41;;;2.83;100.00
72961;BME280;61141;46.204;19.774;2022-11-20T07:48:59;99964.78;;;3.13;100.00
72961;BME280;61141;46.204;19.774;2022-11-20T07:52:02;99955.31;;;2.77;100.00
72961;BME280;61141;46.204;19.774;2022-11-20T07:55:08;99964.97;;;2.87;100.00
72961;BME280;61141;46.204;19.774;2022-11-20T07:58:10;99981.31;;;3.20;100.00
72961;BME280;61141;46.204;19.774;2022-11-20T08:01:13;99974.53;;;2.84;100.00
72961;BME280;61141;46.204;19.774;2022-11-20T08:04:16;99968.50;;;3.08;100.00
72961;BME280;61141;46.204;19.774;2022-11-20T08:07:19;99958.47;;;3.09;100.00
72961;BME280;61141;46.204;19.774;2022-11-20T08:10:22;99960.19;;;3.13;100.00
72961;BME280;61141;46.204;19.774;2022-11-20T08:13:24;99970.59;;;3.03;100.00
72961;BME280;61141;46.204;19.774;2022-11-20T08:16:47;99976.50;;;2.96;100.00
72961;BME280;61141;46.204;19.774;2022-11-20T08:19:50;99995.91;;;3.27;100.00
72961;BME280;61141;46.204;19.774;2022-11-20T08:22:58;99996.56;;;3.24;100.00
72961;BME280;61141;46.204;19.774;2022-11-20T08:26:02;99992.50;;;3.10;100.00
72961;BME280;61141;46.204;19.774;2022-11-20T08:29:05;99982.16;;;3.12;100.00
72961;BME280;61141;46.204;19.774;2022-11-20T08:32:08;99968.94;;;3.10;100.00
72961;BME280;61141;46.204;19.774;2022-11-20T08:35:11;99943.47;;;3.11;100.00
72961;BME280;61141;46.204;19.774;2022-11-20T08:38:13;99956.25;;;3.31;100.00
72961;BME280;61141;46.204;19.774;2022-11-20T08:41:17;99955.97;;;3.24;100.00
72961;BME280;61141;46.204;19.774;2022-11-20T08:44:33;99961.16;;;3.29;100.00
72961;BME280;61141;46.204;19.774;2022-11-20T08:47:36;99952.06;;;3.34;100.00
72961;BME280;61141;46.204;19.774;2022-11-20T08:50:39;99952.78;;;3.64;100.00
72961;BME280;61141;46.204;19.774;2022-11-20T08:53:42;99965.22;;;3.77;100.00
72961;BME280;61141;46.204;19.774;2022-11-20T08:56:45;99966.62;;;3.62;100.00
72961;BME280;61141;46.204;19.774;2022-11-20T08:59:48;99985.84;;;3.69;100.00
72961;BME280;61141;46.204;19.774;2022-11-20T09:03:08;99999.88;;;3.50;100.00
72961;BME280;61141;46.204;19.774;2022-11-20T09:06:11;100026.06;;;3.79;100.00
72961;BME280;61141;46.204;19.774;2022-11-20T09:09:14;100047.75;;;3.79;100.00
72961;BME280;61141;46.204;19.774;2022-11-20T09:12:17;100076.59;;;4.17;100.00
72961;BME280;61141;46.204;19.774;2022-11-20T09:15:19;100068.97;;;4.31;100.00
72961;BME280;61141;46.204;19.774;2022-11-20T09:18:23;100051.16;;;4.42;100.00
72961;BME280;61141;46.204;19.774;2022-11-20T09:21:26;100054.72;;;4.34;99.68
72961;BME280;61141;46.204;19.774;2022-11-20T09:24:29;100061.03;;;4.26;100.00
72961;BME280;61141;46.204;19.774;2022-11-20T09:27:32;100050.16;;;4.13;99.78
72961;BME280;61141;46.204;19.774;2022-11-20T09:30:35;100047.91;;;4.15;100.00
72961;BME280;61141;46.204;19.774;2022-11-20T09:33:38;100047.56;;;4.17;100.00
72961;BME280;61141;46.204;19.774;2022-11-20T09:36:41;100055.28;;;4.27;100.00
72961;BME280;61141;46.204;19.774;2022-11-20T09:39:43;100056.28;;;4.67;99.36
72961;BME280;61141;46.204;19.774;2022-11-20T09:46:21;100061.22;;;4.41;98.63
72961;BME280;61141;46.204;19.774;2022-11-20T09:49:58;100063.87;;;4.74;98.30
72961;BME280;61141;46.204;19.774;2022-11-20T09:56:14;100053.09;;;4.53;99.27
72961;BME280;61141;46.204;19.774;2022-11-20T10:02:48;100037.16;;;4.52;97.28
72961;BME280;61141;46.204;19.774;2022-11-20T10:05:54;100042.88;;;5.07;96.41
72961;BME280;61141;46.204;19.774;2022-11-20T10:09:24;100044.44;;;4.72;95.22
72961;BME280;61141;46.204;19.774;2022-11-20T10:22:37;100009.34;;;5.40;94.45
72961;BME280;61141;46.204;19.774;2022-11-20T10:25:51;100003.19;;;5.55;94.03
72961;BME280;61141;46.204;19.774;2022-11-20T10:32:15;100022.66;;;5.57;94.54
72961;BME280;61141;46.204;19.774;2022-11-20T10:38:43;100035.31;;;5.53;95.38
72961;BME280;61141;46.204;19.774;2022-11-20T10:41:50;100032.94;;;5.63;94.59
72961;BME280;61141;46.204;19.774;2022-11-20T10:45:02;100022.47;;;5.77;95.83
72961;BME280;61141;46.204;19.774;2022-11-20T10:48:19;100014.19;;;5.86;94.94
72961;BME280;61141;46.204;19.774;2022-11-20T10:54:59;100020.78;;;5.85;95.60
72961;BME280;61141;46.204;19.774;2022-11-20T10:58:22;100039.12;;;6.16;94.22
72961;BME280;61141;46.204;19.774;2022-11-20T11:01:28;100047.41;;;5.79;93.02
72961;BME280;61141;46.204;19.774;2022-11-20T11:04:44;100052.53;;;5.69;93.64
72961;BME280;61141;46.204;19.774;2022-11-20T11:07:50;100041.78;;;6.00;94.39
72961;BME280;61141;46.204;19.774;2022-11-20T11:11:15;100044.47;;;6.12;92.76
72961;BME280;61141;46.204;19.774;2022-11-20T11:14:20;100032.91;;;5.87;93.04
72961;BME280;61141;46.204;19.774;2022-11-20T11:20:49;100019.84;;;5.93;93.55
72961;BME280;61141;46.204;19.774;2022-11-20T11:24:00;100016.50;;;6.27;92.37
72961;BME280;61141;46.204;19.774;2022-11-20T11:27:23;100011.72;;;6.52;92.33
72961;BME280;61141;46.204;19.774;2022-11-20T11:30:28;100017.19;;;6.68;90.62
72961;BME280;61141;46.204;19.774;2022-11-20T11:33:32;100019.91;;;6.68;90.73
72961;BME280;61141;46.204;19.774;2022-11-20T11:36:38;100020.56;;;6.96;91.37
72961;BME280;61141;46.204;19.774;2022-11-20T11:39:42;100019.63;;;6.88;88.92
72961;BME280;61141;46.204;19.774;2022-11-20T11:42:58;100024.28;;;6.72;90.30
72961;BME280;61141;46.204;19.774;2022-11-20T11:46:06;100027.97;;;6.64;90.70
72961;BME280;61141;46.204;19.774;2022-11-20T11:49:18;100034.69;;;6.55;90.01
72961;BME280;61141;46.204;19.774;2022-11-20T11:52:23;100040.16;;;6.55;90.57
72961;BME280;61141;46.204;19.774;2022-11-20T11:55:35;100041.59;;;6.21;90.04
72961;BME280;61141;46.204;19.774;2022-11-20T11:58:51;100040.91;;;6.24;91.39
72961;BME280;61141;46.204;19.774;2022-11-20T12:01:57;100049.84;;;6.24;91.76
72961;BME280;61141;46.204;19.774;2022-11-20T12:05:24;100047.75;;;6.33;91.75
72961;BME280;61141;46.204;19.774;2022-11-20T12:11:55;100042.59;;;6.44;91.29
72961;BME280;61141;46.204;19.774;2022-11-20T12:15:02;100035.06;;;6.53;90.86
72961;BME280;61141;46.204;19.774;2022-11-20T12:18:17;100039.19;;;6.47;91.85
72961;BME280;61141;46.204;19.774;2022-11-20T12:21:31;100033.94;;;6.54;91.94
72961;BME280;61141;46.204;19.774;2022-11-20T12:24:59;100032.44;;;6.88;90.43
72961;BME280;61141;46.204;19.774;2022-11-20T12:28:26;100021.47;;;7.00;90.25
72961;BME280;61141;46.204;19.774;2022-11-20T12:31:59;100018.72;;;7.00;89.71
72961;BME280;61141;46.204;19.774;2022-11-20T12:42:45;100022.63;;;6.68;89.92
72961;BME280;61141;46.204;19.774;2022-11-20T12:45:56;100020.97;;;6.79;90.58
72961;BME280;61141;46.204;19.774;2022-11-20T12:52:40;100021.72;;;6.95;90.51
72961;BME280;61141;46.204;19.774;2022-11-20T13:09:15;100004.16;;;6.92;91.34
72961;BME280;61141;46.204;19.774;2022-11-20T13:18:48;100011.69;;;6.99;89.54
72961;BME280;61141;46.204;19.774;2022-11-20T13:21:51;100033.41;;;7.11;88.87
72961;BME280;61141;46.204;19.774;2022-11-20T13:24:54;100032.25;;;7.12;88.78
72961;BME280;61141;46.204;19.774;2022-11-20T13:28:03;100028.50;;;7.01;87.87
72961;BME280;61141;46.204;19.774;2022-11-20T13:31:29;100041.66;;;6.99;88.14
72961;BME280;61141;46.204;19.774;2022-11-20T13:34:33;100037.37;;;6.98;89.06
72961;BME280;61141;46.204;19.774;2022-11-20T13:37:37;100038.06;;;6.95;89.57
72961;BME280;61141;46.204;19.774;2022-11-20T13:40:58;100048.00;;;7.03;90.36
72961;BME280;61141;46.204;19.774;2022-11-20T13:47:23;100048.41;;;7.05;88.43
72961;BME280;61141;46.204;19.774;2022-11-20T14:00:18;100060.19;;;7.09;89.84
72961;BME280;61141;46.204;19.774;2022-11-20T14:03:23;100065.97;;;7.07;89.07
72961;BME280;61141;46.204;19.774;2022-11-20T14:06:48;100065.38;;;7.14;90.32
72961;BME280;61141;46.204;19.774;2022-11-20T14:09:54;100063.25;;;7.07;90.33
72961;BME280;61141;46.204;19.774;2022-11-20T14:12:57;100068.78;;;7.11;90.64
72961;BME280;61141;46.204;19.774;2022-11-20T14:16:00;100064.41;;;7.06;91.18
72961;BME280;61141;46.204;19.774;2022-11-20T14:19:29;100059.06;;;6.94;91.15
72961;BME280;61141;46.204;19.774;2022-11-20T14:22:35;100073.72;;;6.90;91.23
72961;BME280;61141;46.204;19.774;2022-11-20T14:25:42;100080.38;;;6.77;91.79
72961;BME280;61141;46.204;19.774;2022-11-20T14:28:49;100067.41;;;6.86;92.45
72961;BME280;61141;46.204;19.774;2022-11-20T14:31:54;100059.12;;;6.82;91.84
72961;BME280;61141;46.204;19.774;2022-11-20T14:35:03;100059.94;;;6.67;91.87
72961;BME280;61141;46.204;19.774;2022-11-20T14:38:13;100050.00;;;6.75;92.53
72961;BME280;61141;46.204;19.774;2022-11-20T14:41:22;100060.03;;;6.71;91.53
72961;BME280;61141;46.204;19.774;2022-11-20T14:44:31;100061.16;;;6.54;92.15
72961;BME280;61141;46.204;19.774;2022-11-20T14:47:35;100048.31;;;6.55;93.13
72961;BME280;61141;46.204;19.774;2022-11-20T14:50:38;100040.69;;;6.60;93.13
72961;BME280;61141;46.204;19.774;2022-11-20T14:53:41;100040.50;;;6.37;93.16
72961;BME280;61141;46.204;19.774;2022-11-20T14:56:57;100029.97;;;6.52;93.33
72961;BME280;61141;46.204;19.774;2022-11-20T15:00:17;100007.84;;;6.37;93.55
72961;BME280;61141;46.204;19.774;2022-11-20T15:03:22;100001.78;;;6.28;94.51
72961;BME280;61141;46.204;19.774;2022-11-20T15:06:32;100012.81;;;6.35;94.04
72961;BME280;61141;46.204;19.774;2022-11-20T15:09:35;100022.16;;;6.34;94.56
72961;BME280;61141;46.204;19.774;2022-11-20T15:12:45;100022.94;;;6.35;94.66
72961;BME280;61141;46.204;19.774;2022-11-20T15:15:51;100033.94;;;6.54;93.93
72961;BME280;61141;46.204;19.774;2022-11-20T15:18:54;100028.44;;;6.23;94.23
72961;BME280;61141;46.204;19.774;2022-11-20T15:21:57;100020.84;;;6.44;94.13
72961;BME280;61141;46.204;19.774;2022-11-20T15:25:01;100027.72;;;6.10;93.90
72961;BME280;61141;46.204;19.774;2022-11-20T15:28:04;100028.91;;;6.40;94.11
72961;BME280;61141;46.204;19.774;2022-11-20T15:31:16;100031.38;;;6.45;94.11
72961;BME280;61141;46.204;19.774;2022-11-20T15:34:19;100031.19;;;6.38;93.85
72961;BME280;61141;46.204;19.774;2022-11-20T15:37:23;100036.22;;;6.24;93.76
72961;BME280;61141;46.204;19.774;2022-11-20T15:40:32;100036.97;;;6.37;94.51
72961;BME280;61141;46.204;19.774;2022-11-20T15:43:35;100043.25;;;6.25;94.25
72961;BME280;61141;46.204;19.774;2022-11-20T15:46:42;100041.53;;;6.33;93.39
72961;BME280;61141;46.204;19.774;2022-11-20T15:49:47;100047.84;;;6.21;93.81
72961;BME280;61141;46.204;19.774;2022-11-20T15:52:50;100054.97;;;6.14;94.39
72961;BME280;61141;46.204;19.774;2022-11-20T15:55:53;100054.56;;;6.27;94.47
72961;BME280;61141;46.204;19.774;2022-11-20T15:58:56;100048.97;;;6.20;93.42
72961;BME280;61141;46.204;19.774;2022-11-20T16:01:59;100024.53;;;6.08;94.12
72961;BME280;61141;46.204;19.774;2022-11-20T16:05:03;100027.91;;;5.89;94.52
72961;BME280;61141;46.204;19.774;2022-11-20T16:08:06;100020.97;;;5.92;94.49
72961;BME280;61141;46.204;19.774;2022-11-20T16:11:15;100022.16;;;6.07;95.61
72961;BME280;61141;46.204;19.774;2022-11-20T16:14:18;100003.56;;;5.81;95.16
72961;BME280;61141;46.204;19.774;2022-11-20T16:17:40;99999.06;;;5.73;95.58
72961;BME280;61141;46.204;19.774;2022-11-20T16:20:48;100007.19;;;5.85;95.52
72961;BME280;61141;46.204;19.774;2022-11-20T16:23:53;99991.09;;;5.80;95.54
72961;BME280;61141;46.204;19.774;2022-11-20T16:26:56;99995.75;;;5.79;95.25
72961;BME280;61141;46.204;19.774;2022-11-20T16:29:59;100009.22;;;5.88;95.73
72961;BME280;61141;46.204;19.774;2022-11-20T16:33:02;100010.56;;;5.82;96.07
72961;BME280;61141;46.204;19.774;2022-11-20T16:36:15;100000.63;;;5.86;95.94
72961;BME280;61141;46.204;19.774;2022-11-20T16:39:18;99996.50;;;5.92;96.04
72961;BME280;61141;46.204;19.774;2022-11-20T16:42:25;99992.66;;;5.93;96.33
72961;BME280;61141;46.204;19.774;2022-11-20T16:45:29;99987.81;;;5.86;95.94
72961;BME280;61141;46.204;19.774;2022-11-20T16:48:35;99985.75;;;5.83;95.70
72961;BME280;61141;46.204;19.774;2022-11-20T16:51:39;100001.78;;;5.85;95.80
72961;BME280;61141;46.204;19.774;2022-11-20T16:54:42;100017.38;;;5.88;95.71
72961;BME280;61141;46.204;19.774;2022-11-20T16:57:44;100032.94;;;6.03;95.68
72961;BME280;61141;46.204;19.774;2022-11-20T17:00:47;100029.53;;;6.06;95.91
72961;BME280;61141;46.204;19.774;2022-11-20T17:04:04;100038.53;;;5.95;96.63
72961;BME280;61141;46.204;19.774;2022-11-20T17:07:07;100038.75;;;6.02;96.90
72961;BME280;61141;46.204;19.774;2022-11-20T17:10:11;100035.75;;;6.07;96.53
72961;BME280;61141;46.204;19.774;2022-11-20T17:13:14;100025.28;;;5.81;97.09
72961;BME280;61141;46.204;19.774;2022-11-20T17:16:19;100032.31;;;5.82;97.50
72961;BME280;61141;46.204;19.774;2022-11-20T17:19:22;100039.25;;;5.79;98.42
72961;BME280;61141;46.204;19.774;2022-11-20T17:22:25;100030.47;;;5.98;97.57
72961;BME280;61141;46.204;19.774;2022-11-20T17:25:32;100026.66;;;5.87;97.45
72961;BME280;61141;46.204;19.774;2022-11-20T17:28:37;100032.53;;;5.89;97.52
72961;BME280;61141;46.204;19.774;2022-11-20T17:31:41;100030.97;;;5.76;97.71
72961;BME280;61141;46.204;19.774;2022-11-20T17:34:44;100030.19;;;5.75;97.15
72961;BME280;61141;46.204;19.774;2022-11-20T17:37:47;100032.09;;;5.75;97.00